Navajo Dam, NM

5:45 AM MST on January 30, 2015 (GMT -0700)
Fawn Valley Estates | Change Station
CLOSE
Current Station
Personal Weather Station
Location: Aztec, NM
Elevation: 5778 ft
Nearby Weather Stations
Active Advisory: Winter Weather Advisory

Elev 5778 ft 36.90 °N, 107.93 °W | Updated 5 minutes ago

Overcast
Overcast
32.9 °F
Feels Like 30 °F
N
3.2
Wind Variable Wind from NNE

Today
High -- | Low -- °F
--% Chance of Precip.
Yesterday
High -- | Low -- °F
Precip. -- in
7:14 AM 5:33 PM
Waxing Gibbous, 82% visible
Pressure 30.26 in
Visibility 10.0 miles
Clouds Mostly Cloudy 4600 ft
Overcast 6000 ft
Windchill 30 °F
Dew Point 32 °F
Humidity 96%
Rainfall 0.00 in
Snow Depth Not available.
UV 0 out of 12
Pollen .20 out of 12
Air Quality Not available.
Flu Activity Not available.
METAR KDRO 301153Z AUTO 10005KT 10SM BKN046 OVC060 01/M02 A3026 RMK AO2 SLP245 60000 70003 T00111017 10022 20011 58015

More Conditions Fewer Conditions

Pressure 30.26 in
Visibility 10.0 miles
Clouds Mostly Cloudy 4600 ft
Overcast 6000 ft
Windchill 30 °F
Dew Point 32 °F
Humidity 96%
Rainfall 0.00 in
Snow Depth Not available.
UV 0 out of 12
Pollen .20 out of 12
Air Quality Not available.
Flu Activity Not available.
METAR KDRO 301153Z AUTO 10005KT 10SM BKN046 OVC060 01/M02 A3026 RMK AO2 SLP245 60000 70003 T00111017 10022 20011 58015

More Conditions Fewer Conditions

Nowcast | as of 5:41 am MST on January 30, 2015

Snow will continue across western new early this morning...perhaps mixed with rain at lower elevations. The snow will impact roads especially near the Continental Divide...including Interstate 40 near Thoreau and Highway 550 northwest of Cuba. Around 1 or 2 inches of new snow accumulation will be possible above 6000 feet through 8 am MST. For the latest Road conditions visit nm roads.Com or dial 511.

×

10-Day Weather Forecast

Almanac

Astronomy

Jan. 30, 2015 Rise Set
Actual Time
Civil Twilight
Nautical Twilight
Astronomical Twilight
Moon
Length of Visible Light
Length of Day
Tomorrow will be .
, % of the Moon is Illuminated

Today's Extremes

State Highs State Lows

Community

WunderPhotos

Upload Photos

1,791,740 photos uploaded!

WunderBlogs® & News

Nearby

Air Quality

  Air Quality AQ Index Pollutant
Not available.

Snow Depth

Station Depth Elevation

Earthquake Activity

City Distance Mag. Time & Date
Minimum magnitude displayed is 2.5.

Coastal Water Temperatures

Place Temperature

Nearby Weather Stations